Current | Forecast
Updated: 10:30 AM CEST on October 21, 2017
Observed at Alicante, Spain
Temperature 22°C
Humidity 60%
Dew Point 14°C
Wind WNW at 15 km/h
Pressure 1022 hPa (Steady)
Conditions Clear
Visibility -
UV N/A
Clouds
Yesterday's Maximum 26°C
Yesterday's Minimum 16°C approx.
Yesterday's Cooling Degree Days 5 approx.
Sunrise8:18 AM CEST
Sunset7:18 PM CEST
Moon Rise9:40 AM CEST
Moon Set8:41 PM CEST
Moon PhaseMoon Phase
New Moon
Raw METARMETAR LEAL 210830Z 30008KT 250V330 CAVOK 22/14 Q1022 NOSIG


Monday
. High: 75° F.
Tuesday
. High: 77° F.
Wednesday
. High: 75° F.
Thursday
. High: 73° F.
Friday
. High: 69° F.
Saturday
. High: 70° F.
Sunday
. High: 73° F.
Monday
. High: 71° F.

Click here for Marine Information
Scientific forecaster discussion (NWS)

Units: English | Metric

Find the Weather for any City, State or Zipcode, or Country:

U.S. State List | Severe Weather | Tropical Storms | Ski Conditions
United States | Canada | Central America | South America | Asia | Europe | Australia | Africa | Islands

Weather Underground

© Copyright 2017
The Weather Company, LLC